Time;durP1;ratioP1;P1;durP2;ratioP2;P2;SDS_P1;SDS_P2;PMS_P1;PMS_P2;Temp;Humidity;BMP_temperature;BMP_pressure;BME280_temperature;BME280_humidity;BME280_pressure;Samples;Min_cycle;Max_cycle;Signal;HPM_P1;HPM_P2
2022/10/15 00:01:26;;;;;;;34.72;18.50;;;;;;;;;;5070428;28;20048;-51
2022/10/15 00:04:03;;;;;;;37.35;20.23;;;;;;;;;;5068029;28;20420;-49
2022/10/15 00:06:30;;;;;;;39.00;21.02;;;;;;;;;;5069751;28;20133;-50
2022/10/15 00:08:58;;;;;;;36.83;19.85;;;;;;;;;;5074011;28;20052;-49
2022/10/15 00:11:34;;;;;;;36.38;19.27;;;;;;;;;;5072879;28;20045;-53
2022/10/15 00:14:02;;;;;;;39.70;20.42;;;;;;;;;;5072222;28;20454;-50
2022/10/15 00:16:29;;;;;;;45.63;21.52;;;;;;;;;;5064378;28;20118;-52
2022/10/15 00:19:01;;;;;;;34.92;17.15;;;;;;;;;;5067888;28;20067;-53
2022/10/15 00:21:30;;;;;;;37.42;18.80;;;;;;;;;;5054366;28;20049;-52
2022/10/15 00:23:58;;;;;;;41.67;19.67;;;;;;;;;;5067785;28;20071;-50
2022/10/15 00:26:30;;;;;;;40.50;20.55;;;;;;;;;;5062231;28;20048;-50
2022/10/15 00:29:02;;;;;;;33.53;17.15;;;;;;;;;;5073959;28;20060;-50
2022/10/15 00:31:30;;;;;;;39.55;19.30;;;;;;;;;;5074773;28;20053;-50
2022/10/15 00:34:00;;;;;;;39.35;20.48;;;;;;;;;;5073193;28;20064;-50
2022/10/15 00:36:36;;;;;;;33.40;19.48;;;;;;;;;;5060841;28;20059;-49
2022/10/15 00:39:05;;;;;;;34.95;18.60;;;;;;;;;;5068041;28;20477;-48
2022/10/15 00:41:34;;;;;;;37.13;20.08;;;;;;;;;;5074015;28;20056;-50
2022/10/15 00:44:04;;;;;;;33.42;18.13;;;;;;;;;;5074364;28;20049;-49
2022/10/15 00:46:35;;;;;;;42.78;20.50;;;;;;;;;;5074187;28;20107;-49
2022/10/15 00:49:20;;;;;;;36.03;18.58;;;;;;;;;;5071048;28;20453;-50
2022/10/15 00:51:54;;;;;;;41.20;19.33;;;;;;;;;;5073864;28;20063;-49
2022/10/15 00:54:25;;;;;;;40.72;18.75;;;;;;;;;;5071699;28;20088;-49
2022/10/15 00:56:56;;;;;;;35.22;18.00;;;;;;;;;;5059188;28;20449;-49
2022/10/15 00:59:28;;;;;;;40.08;20.70;;;;;;;;;;5073645;28;20048;-51
2022/10/15 01:01:58;;;;;;;34.67;19.15;;;;;;;;;;5074099;28;20041;-53
2022/10/15 01:04:28;;;;;;;43.58;21.90;;;;;;;;;;5073256;28;20493;-50
2022/10/15 01:06:57;;;;;;;39.80;19.58;;;;;;;;;;5091537;28;20044;-49
2022/10/15 01:09:25;;;;;;;34.50;19.45;;;;;;;;;;5094336;28;20056;-49
2022/10/15 01:11:56;;;;;;;35.85;18.15;;;;;;;;;;5064635;28;20435;-52
2022/10/15 01:14:30;;;;;;;41.40;19.33;;;;;;;;;;5073365;28;20048;-49
2022/10/15 01:17:05;;;;;;;39.13;18.85;;;;;;;;;;5076435;28;20076;-50
2022/10/15 01:19:47;;;;;;;34.27;18.43;;;;;;;;;;5074221;28;20131;-50
2022/10/15 01:22:18;;;;;;;46.80;22.58;;;;;;;;;;5059971;28;20056;-49
2022/10/15 01:24:58;;;;;;;38.80;19.45;;;;;;;;;;5065849;28;20053;-50
2022/10/15 01:27:34;;;;;;;33.80;18.88;;;;;;;;;;5068611;28;20040;-48
2022/10/15 01:30:20;;;;;;;40.15;19.90;;;;;;;;;;5073269;28;20484;-51
2022/10/15 01:32:56;;;;;;;41.28;20.38;;;;;;;;;;5073165;28;20064;-50
2022/10/15 01:35:31;;;;;;;47.03;21.23;;;;;;;;;;5072314;28;20446;-49
2022/10/15 01:38:05;;;;;;;42.70;22.05;;;;;;;;;;5073067;28;20044;-49
2022/10/15 01:40:43;;;;;;;40.75;18.88;;;;;;;;;;5072866;28;20452;-52
2022/10/15 01:43:20;;;;;;;38.10;18.58;;;;;;;;;;5073121;28;20140;-49
2022/10/15 01:45:52;;;;;;;43.53;20.45;;;;;;;;;;5072568;28;20079;-49
2022/10/15 01:48:29;;;;;;;41.30;20.30;;;;;;;;;;5072715;28;20041;-50
2022/10/15 01:51:00;;;;;;;36.30;19.02;;;;;;;;;;5085283;28;20079;-51
2022/10/15 01:53:33;;;;;;;39.80;19.80;;;;;;;;;;5062868;28;20366;-49
2022/10/15 01:56:09;;;;;;;41.22;19.98;;;;;;;;;;5058663;28;20045;-50
2022/10/15 01:58:40;;;;;;;38.10;18.85;;;;;;;;;;5072400;28;20052;-52
2022/10/15 02:01:10;;;;;;;39.60;20.92;;;;;;;;;;5072669;28;20063;-53
2022/10/15 02:03:50;;;;;;;34.58;18.58;;;;;;;;;;5065272;28;20080;-49
2022/10/15 02:06:21;;;;;;;37.05;18.98;;;;;;;;;;5053395;28;20494;-53
2022/10/15 02:08:55;;;;;;;39.97;19.40;;;;;;;;;;5064661;28;20053;-50
2022/10/15 02:11:25;;;;;;;41.53;19.73;;;;;;;;;;5052337;28;20053;-49
2022/10/15 02:14:02;;;;;;;35.17;18.58;;;;;;;;;;5056804;28;20066;-49
2022/10/15 02:16:31;;;;;;;45.38;21.60;;;;;;;;;;5056784;28;20080;-49
2022/10/15 02:19:15;;;;;;;37.33;20.10;;;;;;;;;;5052185;28;20198;-50
2022/10/15 02:21:52;;;;;;;37.50;20.45;;;;;;;;;;5052444;28;20075;-49
2022/10/15 02:24:22;;;;;;;33.90;17.60;;;;;;;;;;5064547;28;20454;-49
2022/10/15 02:26:59;;;;;;;44.53;23.65;;;;;;;;;;5063423;28;20064;-50
2022/10/15 02:29:30;;;;;;;43.05;22.00;;;;;;;;;;5071834;28;20045;-50
2022/10/15 02:32:01;;;;;;;39.55;21.50;;;;;;;;;;5061260;28;20131;-50
2022/10/15 02:34:43;;;;;;;43.95;22.17;;;;;;;;;;5060649;28;20466;-49
2022/10/15 02:37:12;;;;;;;44.92;22.38;;;;;;;;;;5062888;28;20048;-49
2022/10/15 02:39:41;;;;;;;43.05;21.55;;;;;;;;;;5066619;28;20060;-49
2022/10/15 02:42:10;;;;;;;42.78;22.17;;;;;;;;;;5054570;28;20407;-49
2022/10/15 02:44:38;;;;;;;42.88;21.23;;;;;;;;;;5068040;28;20083;-50
2022/10/15 02:47:07;;;;;;;41.80;23.33;;;;;;;;;;5067338;28;20056;-53
2022/10/15 02:49:39;;;;;;;40.85;21.00;;;;;;;;;;5056774;28;20059;-50
2022/10/15 02:52:09;;;;;;;46.45;23.65;;;;;;;;;;5052581;28;20052;-49
2022/10/15 02:54:36;;;;;;;40.67;21.95;;;;;;;;;;5068722;28;20620;-48
2022/10/15 02:57:04;;;;;;;40.40;20.85;;;;;;;;;;5073379;28;20482;-50
2022/10/15 02:59:32;;;;;;;43.33;22.48;;;;;;;;;;5075980;28;20162;-49
2022/10/15 03:02:00;;;;;;;40.90;23.95;;;;;;;;;;5085590;28;20056;-53
2022/10/15 03:04:29;;;;;;;42.85;22.05;;;;;;;;;;5087737;28;20360;-49
2022/10/15 03:07:01;;;;;;;41.47;21.25;;;;;;;;;;5084761;28;20135;-49
2022/10/15 03:09:31;;;;;;;42.25;21.45;;;;;;;;;;5082545;28;20453;-49
2022/10/15 03:11:59;;;;;;;44.88;21.40;;;;;;;;;;5074334;28;20347;-50
2022/10/15 03:14:26;;;;;;;45.17;21.80;;;;;;;;;;5076184;28;20044;-51
2022/10/15 03:16:53;;;;;;;49.45;23.48;;;;;;;;;;5075694;28;20068;-49
2022/10/15 03:19:21;;;;;;;42.08;21.50;;;;;;;;;;5068035;28;20051;-50
2022/10/15 03:21:49;;;;;;;42.88;20.38;;;;;;;;;;5068585;28;20476;-50
2022/10/15 03:24:20;;;;;;;42.50;22.85;;;;;;;;;;5072173;28;20067;-50
2022/10/15 03:26:50;;;;;;;46.33;22.25;;;;;;;;;;5075907;28;20048;-49
2022/10/15 03:29:20;;;;;;;48.88;21.88;;;;;;;;;;5079174;28;20041;-52
2022/10/15 03:31:47;;;;;;;42.17;23.10;;;;;;;;;;5087722;28;20066;-50
2022/10/15 03:34:16;;;;;;;43.90;22.40;;;;;;;;;;5088820;28;20427;-53
2022/10/15 03:36:44;;;;;;;43.10;21.42;;;;;;;;;;5084905;28;20048;-50
2022/10/15 03:39:12;;;;;;;52.45;24.95;;;;;;;;;;5089206;28;20044;-51
2022/10/15 03:41:49;;;;;;;42.80;24.33;;;;;;;;;;5085019;28;20083;-52
2022/10/15 03:44:18;;;;;;;43.83;23.67;;;;;;;;;;5077160;28;20049;-50
2022/10/15 03:46:48;;;;;;;52.10;24.92;;;;;;;;;;5063022;28;20496;-49
2022/10/15 03:51:59;;;;;;;49.58;23.05;;;;;;;;;;5056746;28;20049;-49
2022/10/15 03:54:27;;;;;;;45.05;22.30;;;;;;;;;;5072113;28;20048;-52
2022/10/15 03:56:56;;;;;;;42.45;22.27;;;;;;;;;;5063454;28;20057;-49
2022/10/15 03:59:26;;;;;;;43.60;21.35;;;;;;;;;;5074220;28;20442;-49
2022/10/15 04:01:56;;;;;;;45.40;21.58;;;;;;;;;;5059166;28;20048;-50
2022/10/15 04:04:25;;;;;;;41.35;21.25;;;;;;;;;;5057103;28;20080;-49
2022/10/15 04:06:53;;;;;;;45.90;22.67;;;;;;;;;;5062598;28;20045;-51
2022/10/15 04:09:23;;;;;;;45.17;24.10;;;;;;;;;;5065386;28;20044;-51
2022/10/15 04:11:53;;;;;;;46.40;22.60;;;;;;;;;;5059808;28;20064;-53
2022/10/15 04:14:32;;;;;;;47.38;23.73;;;;;;;;;;5064008;28;20456;-50
2022/10/15 04:17:02;;;;;;;50.08;22.88;;;;;;;;;;5059896;28;20060;-49
2022/10/15 04:19:32;;;;;;;44.45;21.02;;;;;;;;;;5056446;28;20461;-50
2022/10/15 04:22:01;;;;;;;44.80;23.98;;;;;;;;;;5060230;28;20611;-49
2022/10/15 04:24:42;;;;;;;41.28;22.23;;;;;;;;;;5067228;28;20053;-49
2022/10/15 04:27:13;;;;;;;50.97;24.52;;;;;;;;;;5063112;28;20056;-50
2022/10/15 04:29:49;;;;;;;49.15;23.02;;;;;;;;;;5064199;28;20056;-49
2022/10/15 04:32:18;;;;;;;48.65;25.60;;;;;;;;;;5059915;28;20049;-50
2022/10/15 04:34:48;;;;;;;46.72;25.23;;;;;;;;;;5059799;28;20084;-51
2022/10/15 04:37:18;;;;;;;40.88;21.25;;;;;;;;;;5059942;28;20727;-50
2022/10/15 04:39:46;;;;;;;46.50;23.60;;;;;;;;;;5057636;28;20056;-49
2022/10/15 04:42:16;;;;;;;44.97;21.42;;;;;;;;;;5056150;28;20132;-51
2022/10/15 04:44:57;;;;;;;51.97;26.17;;;;;;;;;;5064822;28;20050;-50
2022/10/15 04:47:27;;;;;;;47.58;24.60;;;;;;;;;;5072336;28;20052;-52
2022/10/15 04:49:56;;;;;;;50.75;25.38;;;;;;;;;;5054450;28;20056;-50
2022/10/15 04:52:24;;;;;;;48.50;24.30;;;;;;;;;;5066837;28;20052;-50
2022/10/15 04:54:54;;;;;;;44.63;23.75;;;;;;;;;;5079070;28;20048;-49
2022/10/15 04:57:22;;;;;;;48.72;24.77;;;;;;;;;;5093700;28;20508;-51
2022/10/15 05:00:03;;;;;;;50.00;22.52;;;;;;;;;;5074724;28;20155;-50
2022/10/15 05:02:33;;;;;;;46.63;23.83;;;;;;;;;;5073252;28;20088;-49
2022/10/15 05:05:00;;;;;;;48.95;24.77;;;;;;;;;;5073270;28;20114;-53
2022/10/15 05:07:30;;;;;;;47.22;24.58;;;;;;;;;;5073922;28;20052;-50
2022/10/15 05:10:00;;;;;;;51.97;25.55;;;;;;;;;;5090712;28;20044;-49
2022/10/15 05:12:28;;;;;;;54.75;24.90;;;;;;;;;;5094248;28;20129;-49
2022/10/15 05:15:12;;;;;;;45.00;23.15;;;;;;;;;;5076486;28;20054;-51
2022/10/15 05:17:42;;;;;;;46.83;22.70;;;;;;;;;;5074491;28;20477;-48
2022/10/15 05:20:10;;;;;;;49.65;23.27;;;;;;;;;;5074214;28;20098;-49
2022/10/15 05:22:40;;;;;;;66.28;22.10;;;;;;;;;;5073907;28;20055;-49
2022/10/15 05:25:08;;;;;;;51.15;23.13;;;;;;;;;;5086837;28;20083;-50
2022/10/15 05:27:37;;;;;;;43.38;22.67;;;;;;;;;;5082088;28;20066;-51
2022/10/15 05:30:22;;;;;;;48.15;23.02;;;;;;;;;;5092144;28;20055;-52
2022/10/15 05:32:53;;;;;;;44.97;21.67;;;;;;;;;;5062952;28;20105;-49
2022/10/15 05:35:21;;;;;;;48.97;22.15;;;;;;;;;;5075027;28;20052;-51
2022/10/15 05:37:51;;;;;;;52.53;24.55;;;;;;;;;;5083826;28;20053;-49
2022/10/15 05:40:18;;;;;;;48.00;23.13;;;;;;;;;;5087241;28;20040;-50
2022/10/15 05:42:53;;;;;;;48.63;23.52;;;;;;;;;;5080557;28;20086;-51
2022/10/15 05:45:22;;;;;;;54.08;25.63;;;;;;;;;;5068700;28;20478;-49
2022/10/15 05:47:53;;;;;;;47.65;23.40;;;;;;;;;;5072586;28;20044;-51
2022/10/15 05:50:21;;;;;;;49.25;22.60;;;;;;;;;;5066353;28;20059;-53
2022/10/15 05:52:51;;;;;;;51.65;24.13;;;;;;;;;;5078079;28;20048;-53
2022/10/15 05:55:21;;;;;;;46.85;23.35;;;;;;;;;;5073542;28;20044;-49
2022/10/15 05:57:51;;;;;;;46.17;22.33;;;;;;;;;;5072818;28;20045;-49
2022/10/15 06:00:18;;;;;;;54.13;25.40;;;;;;;;;;5072499;28;20048;-50
2022/10/15 06:03:02;;;;;;;52.65;26.92;;;;;;;;;;5086623;28;20044;-51
2022/10/15 06:05:29;;;;;;;53.25;25.52;;;;;;;;;;5064514;28;20128;-49
2022/10/15 06:07:58;;;;;;;54.50;25.85;;;;;;;;;;5052522;28;20060;-49
2022/10/15 06:10:27;;;;;;;53.72;25.05;;;;;;;;;;5052766;28;20041;-52
2022/10/15 06:12:54;;;;;;;55.65;28.13;;;;;;;;;;5058962;28;20060;-49
2022/10/15 06:15:22;;;;;;;51.47;27.27;;;;;;;;;;5055098;28;20168;-52
2022/10/15 06:17:53;;;;;;;47.33;25.40;;;;;;;;;;5072660;28;20052;-49
2022/10/15 06:20:22;;;;;;;53.08;27.35;;;;;;;;;;5072230;28;20091;-51
2022/10/15 06:22:52;;;;;;;53.40;26.52;;;;;;;;;;5072880;28;20067;-50
2022/10/15 06:25:20;;;;;;;55.47;24.38;;;;;;;;;;5054524;28;20056;-52
2022/10/15 06:27:50;;;;;;;47.65;24.83;;;;;;;;;;5066409;28;20059;-53
2022/10/15 06:30:19;;;;;;;46.55;23.08;;;;;;;;;;5074779;28;20149;-49
2022/10/15 06:32:47;;;;;;;45.63;21.17;;;;;;;;;;5072375;28;20071;-49
2022/10/15 06:35:23;;;;;;;53.78;24.88;;;;;;;;;;5070600;28;20445;-51
2022/10/15 06:37:53;;;;;;;53.30;26.52;;;;;;;;;;5053645;28;20044;-49
2022/10/15 06:40:23;;;;;;;48.75;25.42;;;;;;;;;;5052157;28;20049;-49
2022/10/15 06:42:51;;;;;;;48.97;25.08;;;;;;;;;;5060568;28;20053;-48
2022/10/15 06:45:19;;;;;;;50.88;26.33;;;;;;;;;;5071594;28;20481;-49
2022/10/15 06:47:48;;;;;;;56.35;28.60;;;;;;;;;;5069891;28;20434;-49
2022/10/15 06:50:25;;;;;;;55.15;25.00;;;;;;;;;;5069710;28;20049;-49
2022/10/15 06:52:53;;;;;;;49.03;25.38;;;;;;;;;;5084194;28;20176;-51
2022/10/15 06:55:23;;;;;;;50.90;23.88;;;;;;;;;;5072281;28;20048;-49
2022/10/15 06:57:51;;;;;;;50.50;21.25;;;;;;;;;;5074288;28;20048;-49
2022/10/15 07:00:19;;;;;;;53.42;26.55;;;;;;;;;;5077360;28;20453;-50
2022/10/15 07:02:46;;;;;;;50.40;26.02;;;;;;;;;;5072849;28;20045;-51
2022/10/15 07:05:16;;;;;;;50.53;25.63;;;;;;;;;;5072678;28;20059;-52
2022/10/15 07:07:50;;;;;;;51.72;25.92;;;;;;;;;;5059561;28;20056;-48
2022/10/15 07:10:19;;;;;;;51.50;28.05;;;;;;;;;;5068966;28;20049;-48
2022/10/15 07:12:49;;;;;;;52.00;27.23;;;;;;;;;;5062693;28;20135;-49
2022/10/15 07:15:18;;;;;;;50.40;25.00;;;;;;;;;;5069081;28;20122;-49
2022/10/15 07:17:51;;;;;;;50.17;24.30;;;;;;;;;;5070527;28;20044;-50
2022/10/15 07:20:26;;;;;;;54.00;27.42;;;;;;;;;;5068690;28;20076;-49
2022/10/15 07:22:57;;;;;;;61.97;25.98;;;;;;;;;;5069474;28;20135;-49
2022/10/15 07:25:24;;;;;;;52.50;27.77;;;;;;;;;;5073832;28;20433;-49
2022/10/15 07:27:55;;;;;;;46.10;23.40;;;;;;;;;;5071063;28;20090;-50
2022/10/15 07:30:26;;;;;;;51.78;26.23;;;;;;;;;;5068496;28;20382;-52
2022/10/15 07:32:54;;;;;;;47.92;26.20;;;;;;;;;;5067515;28;20061;-48
2022/10/15 07:35:30;;;;;;;46.97;25.20;;;;;;;;;;5069258;28;20094;-48
2022/10/15 07:38:00;;;;;;;51.00;24.42;;;;;;;;;;5068206;28;20053;-49
2022/10/15 07:40:30;;;;;;;51.08;25.27;;;;;;;;;;5063056;28;20060;-49
2022/10/15 07:42:57;;;;;;;53.58;27.17;;;;;;;;;;5067994;28;20056;-52
2022/10/15 07:45:28;;;;;;;55.75;26.67;;;;;;;;;;5068777;28;20068;-53
2022/10/15 07:47:58;;;;;;;52.85;25.95;;;;;;;;;;5072816;28;20719;-49
2022/10/15 07:50:33;;;;;;;46.08;25.00;;;;;;;;;;5064330;28;20049;-51
2022/10/15 07:53:01;;;;;;;48.13;25.52;;;;;;;;;;5066042;28;20083;-50
2022/10/15 07:55:31;;;;;;;52.38;26.08;;;;;;;;;;5067426;28;20040;-49
2022/10/15 07:58:04;;;;;;;53.60;25.33;;;;;;;;;;5067422;28;20044;-49
2022/10/15 08:00:34;;;;;;;48.50;26.42;;;;;;;;;;5066302;28;20053;-49
2022/10/15 08:03:05;;;;;;;47.17;22.92;;;;;;;;;;5063947;28;20123;-48
2022/10/15 08:05:51;;;;;;;43.45;23.67;;;;;;;;;;5069834;28;20056;-48
2022/10/15 08:08:19;;;;;;;47.35;24.98;;;;;;;;;;5068977;28;20119;-49
2022/10/15 08:10:49;;;;;;;41.08;22.38;;;;;;;;;;5072807;28;20365;-49
2022/10/15 08:13:19;;;;;;;43.45;22.83;;;;;;;;;;5072351;28;20476;-51
2022/10/15 08:15:49;;;;;;;48.67;24.08;;;;;;;;;;5064228;28;20391;-54
2022/10/15 08:18:19;;;;;;;43.53;22.67;;;;;;;;;;5068808;28;20048;-52
2022/10/15 08:20:51;;;;;;;45.03;24.15;;;;;;;;;;5072104;28;20635;-49
2022/10/15 08:23:20;;;;;;;44.63;22.67;;;;;;;;;;5069992;28;20048;-49
2022/10/15 08:25:50;;;;;;;43.90;23.35;;;;;;;;;;5066989;28;20052;-48
2022/10/15 08:28:24;;;;;;;46.25;23.05;;;;;;;;;;5062632;28;20086;-50
2022/10/15 08:30:51;;;;;;;43.58;21.80;;;;;;;;;;5068349;28;20049;-52
2022/10/15 08:33:21;;;;;;;44.88;22.67;;;;;;;;;;5070285;28;20048;-51
2022/10/15 08:35:59;;;;;;;44.45;23.17;;;;;;;;;;5072020;28;20076;-48
2022/10/15 08:38:28;;;;;;;42.80;21.17;;;;;;;;;;5064225;28;20347;-48
2022/10/15 08:43:41;;;;;;;42.17;23.42;;;;;;;;;;5075279;28;20056;-51
2022/10/15 08:48:56;;;;;;;38.97;20.25;;;;;;;;;;5062214;28;20361;-52
2022/10/15 08:51:40;;;;;;;45.72;22.25;;;;;;;;;;5064577;28;20053;-48
2022/10/15 08:54:10;;;;;;;41.70;22.08;;;;;;;;;;5071085;28;20052;-52
2022/10/15 08:56:40;;;;;;;37.75;20.08;;;;;;;;;;5059133;28;20044;-52
2022/10/15 08:59:16;;;;;;;38.75;20.70;;;;;;;;;;5074165;28;20091;-49
2022/10/15 09:01:53;;;;;;;37.13;21.17;;;;;;;;;;5073524;28;20044;-48
2022/10/15 09:04:23;;;;;;;36.85;19.48;;;;;;;;;;5087512;28;20056;-48
2022/10/15 09:06:58;;;;;;;36.92;20.25;;;;;;;;;;5073750;28;20048;-51
2022/10/15 09:09:33;;;;;;;35.30;18.87;;;;;;;;;;5073788;28;20461;-48
2022/10/15 09:12:05;;;;;;;34.10;19.17;;;;;;;;;;5059868;28;20302;-49
2022/10/15 09:14:37;;;;;;;40.05;21.08;;;;;;;;;;5073765;28;20056;-49
2022/10/15 09:17:08;;;;;;;38.25;21.13;;;;;;;;;;5077383;28;20052;-50
2022/10/15 09:19:38;;;;;;;34.28;20.25;;;;;;;;;;5073844;28;20084;-48
2022/10/15 09:22:21;;;;;;;34.67;18.70;;;;;;;;;;5073314;28;20080;-48
2022/10/15 09:24:50;;;;;;;38.42;21.67;;;;;;;;;;5073427;28;20652;-52
2022/10/15 09:27:25;;;;;;;37.45;20.63;;;;;;;;;;5063258;28;20044;-49
2022/10/15 09:30:02;;;;;;;37.17;20.83;;;;;;;;;;5086732;28;20628;-49
2022/10/15 09:32:33;;;;;;;37.75;20.80;;;;;;;;;;5070628;28;20051;-51
2022/10/15 09:35:04;;;;;;;36.83;20.60;;;;;;;;;;5073712;28;20048;-49
2022/10/15 09:37:45;;;;;;;36.97;18.88;;;;;;;;;;5073243;28;20045;-49
2022/10/15 09:40:38;;;;;;;32.60;19.05;;;;;;;;;;5072863;28;20063;-48
2022/10/15 09:43:14;;;;;;;34.60;18.83;;;;;;;;;;5079030;28;20059;-51
2022/10/15 09:45:42;;;;;;;37.05;19.88;;;;;;;;;;5064650;28;20075;-49
2022/10/15 09:48:21;;;;;;;37.90;20.02;;;;;;;;;;5071630;28;20602;-50
2022/10/15 09:50:59;;;;;;;33.63;20.25;;;;;;;;;;5073519;28;20052;-52
2022/10/15 09:53:44;;;;;;;35.47;19.90;;;;;;;;;;5071594;28;20434;-50
2022/10/15 09:56:17;;;;;;;34.97;19.98;;;;;;;;;;5063203;28;20052;-53
2022/10/15 09:58:51;;;;;;;37.22;19.42;;;;;;;;;;5056287;28;20053;-48
2022/10/15 10:04:19;;;;;;;34.08;19.67;;;;;;;;;;5054987;28;20053;-49
2022/10/15 10:06:50;;;;;;;34.20;19.58;;;;;;;;;;5055838;28;20146;-50
2022/10/15 10:09:22;;;;;;;40.25;20.33;;;;;;;;;;5054922;28;20049;-49
2022/10/15 10:11:53;;;;;;;32.05;17.40;;;;;;;;;;5058104;28;20078;-49
2022/10/15 10:14:27;;;;;;;36.17;18.70;;;;;;;;;;5064538;28;20074;-49
2022/10/15 10:17:24;;;;;;;34.53;18.98;;;;;;;;;;5067130;28;20040;-52
2022/10/15 10:20:22;;;;;;;33.58;18.45;;;;;;;;;;5067307;28;20476;-48
2022/10/15 10:22:58;;;;;;;34.90;18.60;;;;;;;;;;5008923;28;20052;-48
2022/10/15 10:25:39;;;;;;;35.17;19.38;;;;;;;;;;5071290;28;20055;-48
2022/10/15 10:28:17;;;;;;;33.25;18.20;;;;;;;;;;5061540;28;20045;-48
2022/10/15 10:30:50;;;;;;;37.78;19.90;;;;;;;;;;5055943;28;20045;-49
2022/10/15 10:33:22;;;;;;;32.67;18.15;;;;;;;;;;5067615;28;20449;-48
2022/10/15 10:35:53;;;;;;;37.58;19.00;;;;;;;;;;5070657;28;20087;-48
2022/10/15 10:38:21;;;;;;;34.90;19.13;;;;;;;;;;5066510;28;20052;-48
2022/10/15 10:40:52;;;;;;;33.15;18.75;;;;;;;;;;5071210;28;20044;-48
2022/10/15 10:43:23;;;;;;;39.22;20.65;;;;;;;;;;5064789;28;20045;-50
2022/10/15 10:45:54;;;;;;;35.72;19.45;;;;;;;;;;5063186;28;20049;-49
2022/10/15 10:48:24;;;;;;;36.47;19.35;;;;;;;;;;5061785;28;20048;-50
2022/10/15 10:51:02;;;;;;;38.15;20.38;;;;;;;;;;5072013;28;20040;-49
2022/10/15 10:53:29;;;;;;;38.35;19.13;;;;;;;;;;5067043;28;20127;-48
2022/10/15 10:56:09;;;;;;;36.22;19.83;;;;;;;;;;5057123;28;20060;-48
2022/10/15 10:58:38;;;;;;;37.85;20.58;;;;;;;;;;5053360;28;20053;-48
2022/10/15 11:01:06;;;;;;;34.40;19.13;;;;;;;;;;5058492;28;20381;-49
2022/10/15 11:03:35;;;;;;;34.30;18.85;;;;;;;;;;5072071;28;20114;-52
2022/10/15 11:06:16;;;;;;;36.08;18.67;;;;;;;;;;5061340;28;20049;-50
2022/10/15 11:08:53;;;;;;;29.88;16.58;;;;;;;;;;5063372;28;20056;-50
2022/10/15 11:11:28;;;;;;;33.80;18.63;;;;;;;;;;5066080;28;20037;-49
2022/10/15 11:14:02;;;;;;;31.27;16.13;;;;;;;;;;5068957;28;20048;-52
2022/10/15 11:16:33;;;;;;;34.17;18.90;;;;;;;;;;5068409;28;20656;-52
2022/10/15 11:19:11;;;;;;;32.38;18.08;;;;;;;;;;5060900;28;20479;-50
2022/10/15 11:21:42;;;;;;;36.53;19.17;;;;;;;;;;5064582;28;20116;-48
2022/10/15 11:24:16;;;;;;;30.48;16.77;;;;;;;;;;5063906;28;20052;-47
2022/10/15 11:26:57;;;;;;;33.95;18.65;;;;;;;;;;5061051;28;20067;-47
2022/10/15 11:29:30;;;;;;;33.42;17.73;;;;;;;;;;5075473;28;20059;-51
2022/10/15 11:32:05;;;;;;;31.40;17.05;;;;;;;;;;5074959;28;20098;-50
2022/10/15 11:34:41;;;;;;;36.58;18.10;;;;;;;;;;5082187;28;20052;-51
2022/10/15 11:37:19;;;;;;;32.05;18.25;;;;;;;;;;5070815;28;20044;-50
2022/10/15 11:40:14;;;;;;;31.98;19.08;;;;;;;;;;5072741;28;20086;-51
2022/10/15 11:42:52;;;;;;;30.70;17.13;;;;;;;;;;5075655;28;20059;-48
2022/10/15 11:45:33;;;;;;;31.92;18.15;;;;;;;;;;5071801;28;20059;-49
2022/10/15 11:48:11;;;;;;;31.88;18.45;;;;;;;;;;5067153;28;20044;-48
2022/10/15 11:50:45;;;;;;;28.15;16.45;;;;;;;;;;5067025;28;20495;-48
2022/10/15 11:53:35;;;;;;;30.37;16.67;;;;;;;;;;5073804;28;20492;-48
2022/10/15 11:56:04;;;;;;;28.58;15.30;;;;;;;;;;5059614;28;20074;-48
2022/10/15 11:58:42;;;;;;;31.20;17.20;;;;;;;;;;5081255;28;20112;-49
2022/10/15 12:01:14;;;;;;;31.85;17.92;;;;;;;;;;5088187;28;20051;-49
2022/10/15 12:03:45;;;;;;;30.15;15.55;;;;;;;;;;5073596;28;20055;-48
2022/10/15 12:06:15;;;;;;;29.75;17.27;;;;;;;;;;5059100;28;20053;-48
2022/10/15 12:08:45;;;;;;;25.23;14.90;;;;;;;;;;5073241;28;20060;-48
2022/10/15 12:11:18;;;;;;;27.73;15.35;;;;;;;;;;5073122;28;20096;-48
2022/10/15 12:14:04;;;;;;;29.80;16.98;;;;;;;;;;5060277;28;20048;-48
2022/10/15 12:16:35;;;;;;;30.83;15.07;;;;;;;;;;5072989;28;20063;-48
2022/10/15 12:19:12;;;;;;;26.27;15.98;;;;;;;;;;5073498;28;20056;-49
2022/10/15 12:21:42;;;;;;;29.00;16.17;;;;;;;;;;5073098;28;20052;-48
2022/10/15 12:24:27;;;;;;;29.98;15.13;;;;;;;;;;5073867;28;20052;-48
2022/10/15 12:26:54;;;;;;;28.15;15.93;;;;;;;;;;5085993;28;20062;-51
2022/10/15 12:29:28;;;;;;;27.20;15.30;;;;;;;;;;5084590;28;20063;-48
2022/10/15 12:31:56;;;;;;;25.13;14.45;;;;;;;;;;5065617;28;20080;-48
2022/10/15 12:34:29;;;;;;;27.65;16.33;;;;;;;;;;5063548;28;20055;-50
2022/10/15 12:37:04;;;;;;;29.80;15.18;;;;;;;;;;5070356;28;20471;-49
2022/10/15 12:39:33;;;;;;;28.17;15.70;;;;;;;;;;5065977;28;20083;-49
2022/10/15 12:42:00;;;;;;;24.58;14.80;;;;;;;;;;5060398;28;20059;-47
2022/10/15 12:44:38;;;;;;;29.48;15.90;;;;;;;;;;5073723;28;20071;-46
2022/10/15 12:47:06;;;;;;;25.10;14.25;;;;;;;;;;5072527;28;20505;-52
2022/10/15 12:50:05;;;;;;;26.77;15.55;;;;;;;;;;5056430;28;20076;-47
2022/10/15 12:52:52;;;;;;;27.23;14.95;;;;;;;;;;5068103;28;20533;-48
2022/10/15 12:55:25;;;;;;;26.88;13.88;;;;;;;;;;5063208;28;20647;-48
2022/10/15 13:00:52;;;;;;;30.15;15.05;;;;;;;;;;5061365;28;20053;-47
2022/10/15 13:03:38;;;;;;;21.15;13.70;;;;;;;;;;5072563;28;20044;-47
2022/10/15 13:06:25;;;;;;;26.67;14.07;;;;;;;;;;5060425;28;20083;-48
2022/10/15 13:08:57;;;;;;;27.20;15.13;;;;;;;;;;5054126;28;20049;-50
2022/10/15 13:11:29;;;;;;;23.13;14.15;;;;;;;;;;5054001;28;20110;-50
2022/10/15 13:14:01;;;;;;;25.13;15.32;;;;;;;;;;5054154;28;20049;-48
2022/10/15 13:16:33;;;;;;;26.55;14.60;;;;;;;;;;5064026;28;20087;-47
2022/10/15 13:19:01;;;;;;;25.70;14.90;;;;;;;;;;5073040;28;20048;-47
2022/10/15 13:21:47;;;;;;;26.40;14.80;;;;;;;;;;5069283;28;20068;-49
2022/10/15 13:24:17;;;;;;;28.38;15.60;;;;;;;;;;5072128;28;20424;-47
2022/10/15 13:26:47;;;;;;;28.13;15.85;;;;;;;;;;5072940;28;20052;-47
2022/10/15 13:29:17;;;;;;;26.73;14.80;;;;;;;;;;5073083;28;20453;-47
2022/10/15 13:31:55;;;;;;;27.42;16.35;;;;;;;;;;5073320;28;20123;-47
2022/10/15 13:34:29;;;;;;;26.85;13.95;;;;;;;;;;5068546;28;20354;-47
2022/10/15 13:36:57;;;;;;;28.65;15.38;;;;;;;;;;5074937;28;20052;-48
2022/10/15 13:39:28;;;;;;;24.50;12.32;;;;;;;;;;5062004;28;20653;-47
2022/10/15 13:42:06;;;;;;;29.73;15.20;;;;;;;;;;5066377;28;20048;-48
2022/10/15 13:44:33;;;;;;;24.13;14.13;;;;;;;;;;5065699;28;20067;-47
2022/10/15 13:47:05;;;;;;;25.67;14.70;;;;;;;;;;5071853;28;20053;-48
2022/10/15 13:49:31;;;;;;;23.92;13.48;;;;;;;;;;5070162;28;20093;-47
2022/10/15 13:51:57;;;;;;;23.38;14.02;;;;;;;;;;5071994;28;20450;-48
2022/10/15 13:54:27;;;;;;;25.33;13.32;;;;;;;;;;5073155;28;20044;-48
2022/10/15 13:56:57;;;;;;;27.20;15.25;;;;;;;;;;5072677;28;20507;-47
2022/10/15 13:59:28;;;;;;;23.88;15.10;;;;;;;;;;5073312;28;20059;-47
2022/10/15 14:02:04;;;;;;;24.73;13.52;;;;;;;;;;5070722;28;20080;-48
2022/10/15 14:04:32;;;;;;;25.50;13.85;;;;;;;;;;5072402;28;20048;-46
2022/10/15 14:07:01;;;;;;;24.98;13.55;;;;;;;;;;5071206;28;20079;-47
2022/10/15 14:09:33;;;;;;;28.38;15.20;;;;;;;;;;5071962;28;20153;-47
2022/10/15 14:11:59;;;;;;;21.75;12.70;;;;;;;;;;5071446;28;20071;-47
2022/10/15 14:14:27;;;;;;;27.77;14.98;;;;;;;;;;5068186;28;20430;-48
2022/10/15 14:16:54;;;;;;;25.25;14.35;;;;;;;;;;5072123;28;20048;-47
2022/10/15 14:19:25;;;;;;;28.67;16.25;;;;;;;;;;5072571;28;20060;-47
2022/10/15 14:21:55;;;;;;;29.08;15.75;;;;;;;;;;5069881;28;20081;-47
2022/10/15 14:24:22;;;;;;;28.50;14.77;;;;;;;;;;5072248;28;20445;-46
2022/10/15 14:26:49;;;;;;;32.70;16.15;;;;;;;;;;5071647;28;20096;-50
2022/10/15 14:29:16;;;;;;;30.70;15.77;;;;;;;;;;5071793;28;20064;-47
2022/10/15 14:31:46;;;;;;;28.67;15.98;;;;;;;;;;5072321;28;20044;-47
2022/10/15 14:34:27;;;;;;;25.48;13.98;;;;;;;;;;5072643;28;20040;-48
2022/10/15 14:36:56;;;;;;;25.33;14.55;;;;;;;;;;5067678;28;20362;-50
2022/10/15 14:39:37;;;;;;;25.05;15.07;;;;;;;;;;5070662;28;20059;-48
2022/10/15 14:42:08;;;;;;;29.02;17.15;;;;;;;;;;5068220;28;20059;-47
2022/10/15 14:44:43;;;;;;;27.10;16.38;;;;;;;;;;5070598;28;20101;-48
2022/10/15 14:47:20;;;;;;;25.00;14.68;;;;;;;;;;5071112;28;20147;-47
2022/10/15 14:49:49;;;;;;;26.75;15.48;;;;;;;;;;5063328;28;20048;-47
2022/10/15 14:52:27;;;;;;;28.88;16.05;;;;;;;;;;5056380;28;20055;-55
2022/10/15 14:55:03;;;;;;;28.63;14.60;;;;;;;;;;5074480;28;20056;-54
2022/10/15 14:57:37;;;;;;;27.00;16.45;;;;;;;;;;5077039;28;20465;-55
2022/10/15 15:00:14;;;;;;;29.73;16.20;;;;;;;;;;5071638;28;20084;-51